createdAt,value
2023-01-13T00:00:33.294Z,2.53
2023-01-13T00:02:59.932Z,2.08
2023-01-13T00:05:26.819Z,2.80
2023-01-13T00:07:53.431Z,2.45
2023-01-13T00:10:19.995Z,3.10
2023-01-13T00:12:46.624Z,2.63
2023-01-13T00:15:13.495Z,2.50
2023-01-13T00:17:40.269Z,4.72
2023-01-13T00:20:07.677Z,3.72
2023-01-13T00:22:35.700Z,3.65
2023-01-13T00:25:04.469Z,5.70
2023-01-13T00:27:31.694Z,3.80
2023-01-13T00:29:58.879Z,5.55
2023-01-13T00:32:25.829Z,3.45
2023-01-13T00:34:52.491Z,5.72
2023-01-13T00:37:19.152Z,12.27
2023-01-13T00:39:46.056Z,12.98
2023-01-13T00:42:31.471Z,2.40
2023-01-13T00:44:58.030Z,4.43
2023-01-13T00:47:24.640Z,7.57
2023-01-13T00:49:51.245Z,6.90
2023-01-13T00:52:17.920Z,5.95
2023-01-13T00:54:44.493Z,7.20
2023-01-13T00:57:11.238Z,8.93
2023-01-13T00:59:37.847Z,6.60
2023-01-13T01:02:04.538Z,8.63
2023-01-13T01:04:31.418Z,5.53
2023-01-13T01:06:58.149Z,6.43
2023-01-13T01:09:26.667Z,7.72
2023-01-13T01:11:53.273Z,11.00
2023-01-13T01:14:19.830Z,8.50
2023-01-13T01:16:46.433Z,9.98
2023-01-13T01:19:13.194Z,8.38
2023-01-13T01:21:40.129Z,10.00
2023-01-13T01:24:07.145Z,14.80
2023-01-13T01:26:33.853Z,8.68
2023-01-13T01:29:02.442Z,7.25
2023-01-13T01:31:32.647Z,10.57
2023-01-13T01:34:00.606Z,10.35
2023-01-13T01:36:30.215Z,13.02
2023-01-13T01:38:58.493Z,11.93
2023-01-13T01:41:28.593Z,15.70
2023-01-13T01:44:42.501Z,9.07
2023-01-13T01:47:13.639Z,11.48
2023-01-13T01:49:41.119Z,10.60
2023-01-13T01:52:23.624Z,8.35
2023-01-13T01:54:57.072Z,18.13
2023-01-13T01:57:29.514Z,11.77
2023-01-13T01:59:59.005Z,15.13
2023-01-13T02:02:25.596Z,12.05
2023-01-13T02:04:55.091Z,8.40
2023-01-13T02:07:26.131Z,20.20
2023-01-13T02:09:55.644Z,14.38
2023-01-13T02:12:29.621Z,13.90
2023-01-13T02:15:03.357Z,12.82
2023-01-13T02:17:57.933Z,13.80
2023-01-13T02:20:53.074Z,14.13
2023-01-13T02:23:51.058Z,17.17
2023-01-13T02:27:06.860Z,10.45
2023-01-13T02:30:15.732Z,13.52
2023-01-13T02:33:10.216Z,18.60
2023-01-13T02:35:57.575Z,19.92
2023-01-13T02:38:31.447Z,15.45
2023-01-13T02:41:25.020Z,10.00
2023-01-13T02:44:09.367Z,18.95
2023-01-13T02:46:48.839Z,23.20
2023-01-13T02:49:29.607Z,20.02
2023-01-13T02:52:05.305Z,15.65
2023-01-13T02:54:35.907Z,22.63
2023-01-13T02:57:03.932Z,16.55
2023-01-13T02:59:31.920Z,15.88
2023-01-13T03:01:59.466Z,18.70
2023-01-13T03:04:47.719Z,18.52
2023-01-13T03:07:25.705Z,19.38
2023-01-13T03:10:06.133Z,14.27
2023-01-13T03:12:44.042Z,21.30
2023-01-13T03:15:22.007Z,17.25
2023-01-13T03:18:13.245Z,17.88
2023-01-13T03:20:48.537Z,22.95
2023-01-13T03:23:30.001Z,17.58
2023-01-13T03:26:07.340Z,13.68
2023-01-13T03:28:40.853Z,17.83
2023-01-13T03:31:14.183Z,17.88
2023-01-13T03:34:02.193Z,20.77
2023-01-13T03:36:31.312Z,16.20
2023-01-13T03:39:05.265Z,17.17
2023-01-13T03:41:57.127Z,27.05
2023-01-13T03:44:33.952Z,23.95
2023-01-13T03:47:13.046Z,23.88
2023-01-13T03:49:43.367Z,23.88
2023-01-13T03:52:17.278Z,27.98
2023-01-13T03:54:54.270Z,31.30
2023-01-13T03:57:25.632Z,34.13
2023-01-13T03:59:56.576Z,28.23
2023-01-13T04:02:40.362Z,27.33
2023-01-13T04:05:09.700Z,21.55
2023-01-13T04:08:06.427Z,27.00
2023-01-13T04:10:45.287Z,33.40
2023-01-13T04:13:16.448Z,31.30
2023-01-13T04:15:45.162Z,31.50
2023-01-13T04:18:15.300Z,36.88
2023-01-13T04:20:43.524Z,31.58
2023-01-13T04:23:10.531Z,29.20
2023-01-13T04:25:37.515Z,30.25
2023-01-13T04:28:04.439Z,32.83
2023-01-13T04:30:30.885Z,28.38
2023-01-13T04:32:57.317Z,27.40
2023-01-13T04:35:23.739Z,25.42
2023-01-13T04:37:50.273Z,32.25
2023-01-13T04:40:16.784Z,28.05
2023-01-13T04:42:44.797Z,24.05
2023-01-13T04:45:12.121Z,23.70
2023-01-13T04:47:38.726Z,26.15
2023-01-13T04:50:05.716Z,24.80
2023-01-13T04:52:32.157Z,26.52
2023-01-13T04:54:58.598Z,31.17
2023-01-13T04:57:25.894Z,25.20
2023-01-13T04:59:52.372Z,31.77
2023-01-13T05:02:21.762Z,28.13
2023-01-13T05:04:48.829Z,27.23
2023-01-13T05:07:16.376Z,27.55
2023-01-13T05:09:42.798Z,34.35
2023-01-13T05:12:29.458Z,29.13
2023-01-13T05:15:14.504Z,23.85
2023-01-13T05:17:41.718Z,27.88
2023-01-13T05:20:09.116Z,30.52
2023-01-13T05:22:53.861Z,18.42
2023-01-13T05:25:24.904Z,27.05
2023-01-13T05:27:56.796Z,27.25
2023-01-13T05:30:26.955Z,24.25
2023-01-13T05:32:53.754Z,22.15
2023-01-13T05:35:20.496Z,27.58
2023-01-13T05:37:47.309Z,29.05
2023-01-13T05:40:38.012Z,33.50
2023-01-13T05:43:19.905Z,29.60
2023-01-13T05:46:05.713Z,33.67
2023-01-13T05:48:40.259Z,26.20
2023-01-13T05:51:10.052Z,22.67
2023-01-13T05:53:36.944Z,31.70
2023-01-13T05:56:04.711Z,20.63
2023-01-13T05:58:31.310Z,30.63
2023-01-13T06:01:08.708Z,22.08
2023-01-13T06:03:36.450Z,28.38
2023-01-13T06:06:04.092Z,43.50
2023-01-13T06:08:31.373Z,31.15
2023-01-13T06:10:57.787Z,26.17
2023-01-13T06:13:25.371Z,29.55
2023-01-13T06:15:54.994Z,31.77
2023-01-13T06:18:21.517Z,32.00
2023-01-13T06:20:47.864Z,31.58
2023-01-13T06:23:14.616Z,32.55
2023-01-13T06:26:01.998Z,30.15
2023-01-13T06:28:28.455Z,27.25
2023-01-13T06:31:00.077Z,25.83
2023-01-13T06:33:32.588Z,25.25
2023-01-13T06:36:03.153Z,24.90
2023-01-13T06:38:34.276Z,25.20
2023-01-13T06:41:00.707Z,30.75
2023-01-13T06:43:27.533Z,31.55
2023-01-13T06:45:55.877Z,25.20
2023-01-13T06:48:33.086Z,31.83
2023-01-13T06:50:59.605Z,24.80
2023-01-13T06:53:26.085Z,26.10
2023-01-13T06:55:52.447Z,31.35
2023-01-13T06:58:18.941Z,28.23
2023-01-13T07:00:49.547Z,33.13
2023-01-13T07:03:17.171Z,27.30
2023-01-13T07:05:51.140Z,29.13
2023-01-13T07:08:17.569Z,25.75
2023-01-13T07:10:44.012Z,28.48
2023-01-13T07:13:29.071Z,28.58
2023-01-13T07:15:57.788Z,30.50
2023-01-13T07:18:25.147Z,25.10
2023-01-13T07:20:53.322Z,27.75
2023-01-13T07:23:23.456Z,29.27
2023-01-13T07:25:50.302Z,34.63
2023-01-13T07:28:17.010Z,33.22
2023-01-13T07:30:44.493Z,21.85
2023-01-13T07:33:10.863Z,36.15
2023-01-13T07:35:40.649Z,28.27
2023-01-13T07:38:08.127Z,26.92
2023-01-13T07:40:37.619Z,30.52
2023-01-13T07:43:23.466Z,29.70
2023-01-13T07:45:58.688Z,28.35
2023-01-13T07:48:26.345Z,32.70
2023-01-13T07:50:52.984Z,36.30
2023-01-13T07:53:19.469Z,28.50
2023-01-13T07:55:45.877Z,34.58
2023-01-13T07:58:12.550Z,24.85
2023-01-13T08:00:39.302Z,27.05
2023-01-13T08:03:06.041Z,30.08
2023-01-13T08:05:35.175Z,32.13
2023-01-13T08:08:01.934Z,34.35
2023-01-13T08:10:28.298Z,29.30
2023-01-13T08:13:13.539Z,28.30
2023-01-13T08:15:40.097Z,26.25
2023-01-13T08:18:06.634Z,25.92
2023-01-13T08:20:33.229Z,38.00
2023-01-13T08:23:00.411Z,30.98
2023-01-13T08:25:28.475Z,38.33
2023-01-13T08:27:54.899Z,29.55
2023-01-13T08:30:21.840Z,33.25
2023-01-13T08:32:49.908Z,28.95
2023-01-13T08:35:17.579Z,25.65
2023-01-13T08:37:44.941Z,22.63
2023-01-13T08:40:12.726Z,30.75
2023-01-13T08:42:39.161Z,31.70
2023-01-13T08:45:06.622Z,21.33
2023-01-13T08:47:33.114Z,26.27
2023-01-13T08:49:59.511Z,28.70
2023-01-13T08:52:26.231Z,30.08
2023-01-13T08:54:52.713Z,29.27
2023-01-13T08:57:22.106Z,30.45
2023-01-13T08:59:48.658Z,26.65
2023-01-13T09:02:18.720Z,22.40
2023-01-13T09:04:46.284Z,27.92
2023-01-13T09:07:13.212Z,22.38
2023-01-13T09:09:39.729Z,25.63
2023-01-13T09:12:25.479Z,30.08
2023-01-13T09:14:52.565Z,25.77
2023-01-13T09:17:19.049Z,26.17
2023-01-13T09:19:45.415Z,25.30
2023-01-13T09:22:16.789Z,25.02
2023-01-13T09:24:43.885Z,24.17
2023-01-13T09:27:11.798Z,19.55
2023-01-13T09:29:38.290Z,24.23
2023-01-13T09:32:05.908Z,24.63
2023-01-13T09:34:51.473Z,22.45
2023-01-13T09:37:17.986Z,27.20
2023-01-13T09:39:44.574Z,25.10
2023-01-13T09:42:45.610Z,19.98
2023-01-13T09:45:18.114Z,19.08
2023-01-13T09:47:55.808Z,25.27
2023-01-13T09:51:09.566Z,14.85
2023-01-13T09:53:47.976Z,23.10
2023-01-13T09:56:14.514Z,16.10
2023-01-13T09:58:41.311Z,13.73
2023-01-13T10:01:32.555Z,19.88
2023-01-13T10:04:03.975Z,21.05
2023-01-13T10:06:36.868Z,18.30
2023-01-13T10:09:03.407Z,18.75
2023-01-13T10:11:52.657Z,19.67
2023-01-13T10:14:24.382Z,17.80
2023-01-13T10:17:11.683Z,13.57
2023-01-13T10:19:48.442Z,17.25
2023-01-13T10:22:28.476Z,18.30
2023-01-13T10:25:21.562Z,17.45
2023-01-13T10:27:53.860Z,20.55
2023-01-13T10:30:22.015Z,15.38
2023-01-13T10:33:02.009Z,17.35
2023-01-13T10:35:52.435Z,22.45
2023-01-13T10:38:20.581Z,9.73
2023-01-13T10:40:52.366Z,10.80
2023-01-13T10:43:18.724Z,15.52
2023-01-13T10:46:04.232Z,19.30
2023-01-13T10:48:36.876Z,21.35
2023-01-13T10:51:18.155Z,18.02
2023-01-13T10:53:49.789Z,20.95
2023-01-13T10:56:19.003Z,14.18
2023-01-13T10:58:45.714Z,17.40
2023-01-13T11:01:25.762Z,14.55
2023-01-13T11:03:54.570Z,25.45
2023-01-13T11:06:29.859Z,15.38
2023-01-13T11:08:58.803Z,21.27
2023-01-13T11:11:40.167Z,23.80
2023-01-13T11:14:36.372Z,12.88
2023-01-13T11:17:27.618Z,20.85
2023-01-13T11:20:17.157Z,20.33
2023-01-13T11:22:51.199Z,22.55
2023-01-13T11:25:24.125Z,18.40
2023-01-13T11:28:00.650Z,12.77
2023-01-13T11:30:50.826Z,12.27
2023-01-13T11:33:32.145Z,15.73
2023-01-13T11:36:03.319Z,26.60
2023-01-13T11:38:46.957Z,20.52
2023-01-13T11:41:30.837Z,11.07
2023-01-13T11:44:10.684Z,12.85
2023-01-13T11:46:37.193Z,17.48
2023-01-13T11:49:04.697Z,15.23
2023-01-13T11:51:49.252Z,13.85
2023-01-13T11:54:34.732Z,14.10
2023-01-13T11:57:41.769Z,14.43
2023-01-13T12:00:40.553Z,15.68
2023-01-13T12:03:18.000Z,11.85
2023-01-13T12:05:59.733Z,13.18
2023-01-13T12:08:58.624Z,12.27
2023-01-13T12:12:13.953Z,11.90
2023-01-13T12:15:18.364Z,9.38
2023-01-13T12:18:18.898Z,13.50
2023-01-13T12:21:05.613Z,10.43
2023-01-13T12:23:44.038Z,12.07
2023-01-13T12:26:12.474Z,13.13
2023-01-13T12:28:53.869Z,14.07
2023-01-13T12:31:22.058Z,12.18
2023-01-13T12:34:10.150Z,17.30
2023-01-13T12:36:58.415Z,13.82
2023-01-13T12:39:48.109Z,14.10
2023-01-13T12:42:39.515Z,17.55
2023-01-13T12:45:12.135Z,15.60
2023-01-13T12:47:43.751Z,10.43
2023-01-13T12:50:22.568Z,17.33
2023-01-13T12:52:50.307Z,13.73
2023-01-13T12:55:19.872Z,21.25
2023-01-13T12:58:15.668Z,15.65
2023-01-13T13:00:42.052Z,14.45
2023-01-13T13:03:12.168Z,17.70
2023-01-13T13:05:54.114Z,18.00
2023-01-13T13:08:58.943Z,14.90
2023-01-13T13:11:50.356Z,19.30
2023-01-13T13:14:36.683Z,18.08
2023-01-13T13:17:29.380Z,19.75
2023-01-13T13:19:56.681Z,14.88
2023-01-13T13:22:26.063Z,11.43
2023-01-13T13:24:52.435Z,22.88
2023-01-13T13:27:25.301Z,17.40
2023-01-13T13:30:22.244Z,14.93
2023-01-13T13:33:00.063Z,12.40
2023-01-13T13:35:52.308Z,12.75
2023-01-13T13:38:43.877Z,13.25
2023-01-13T13:41:40.838Z,15.25
2023-01-13T13:44:35.706Z,17.40
2023-01-13T13:47:03.844Z,19.33
2023-01-13T13:49:50.882Z,15.32
2023-01-13T13:52:41.619Z,17.30
2023-01-13T13:55:29.757Z,15.18
2023-01-13T13:57:58.893Z,16.00
2023-01-13T14:00:30.153Z,14.00
2023-01-13T14:03:03.137Z,19.73
2023-01-13T14:05:38.799Z,13.80
2023-01-13T14:08:16.521Z,14.75
2023-01-13T14:10:45.592Z,15.30
2023-01-13T14:13:25.993Z,16.88
2023-01-13T14:16:02.813Z,17.95
2023-01-13T14:18:32.182Z,15.55
2023-01-13T14:21:20.381Z,12.90
2023-01-13T14:23:53.390Z,14.25
2023-01-13T14:26:25.029Z,19.05
2023-01-13T14:28:52.588Z,23.05
2023-01-13T14:31:19.438Z,14.55
2023-01-13T14:33:48.760Z,19.15
2023-01-13T14:36:15.066Z,18.38
2023-01-13T14:38:42.849Z,17.85
2023-01-13T14:41:19.057Z,10.82
2023-01-13T14:43:47.267Z,11.32
2023-01-13T14:46:14.590Z,16.83
2023-01-13T14:48:46.919Z,13.32
2023-01-13T14:51:22.322Z,17.63
2023-01-13T14:53:49.592Z,19.60
2023-01-13T14:56:46.974Z,12.30
2023-01-13T14:59:48.304Z,15.95
2023-01-13T15:02:30.040Z,18.10
2023-01-13T15:05:15.604Z,16.65
2023-01-13T15:07:49.681Z,12.43
2023-01-13T15:10:19.282Z,21.38
2023-01-13T15:12:46.354Z,28.75
2023-01-13T15:15:24.149Z,17.55
2023-01-13T15:17:51.296Z,21.80
2023-01-13T15:20:22.493Z,15.25
2023-01-13T15:22:50.040Z,13.63
2023-01-13T15:25:16.746Z,14.32
2023-01-13T15:27:44.984Z,15.98
2023-01-13T15:30:27.316Z,15.52
2023-01-13T15:32:57.427Z,12.23
2023-01-13T15:35:26.310Z,13.82
2023-01-13T15:37:53.157Z,16.30
2023-01-13T15:40:22.563Z,10.25
2023-01-13T15:43:13.891Z,8.35
2023-01-13T15:46:02.370Z,6.45
2023-01-13T15:48:32.340Z,11.68
2023-01-13T15:50:59.600Z,4.30
2023-01-13T15:53:27.486Z,8.95
2023-01-13T15:55:56.485Z,10.45
2023-01-13T15:58:28.404Z,5.00
2023-01-13T16:00:55.336Z,10.20
2023-01-13T16:03:21.950Z,5.97
2023-01-13T16:05:48.667Z,11.35
2023-01-13T16:08:20.641Z,9.43
2023-01-13T16:10:47.577Z,13.93
2023-01-13T16:13:15.365Z,10.93
2023-01-13T16:15:48.290Z,9.75
2023-01-13T16:18:20.098Z,24.55
2023-01-13T16:20:47.196Z,14.20
2023-01-13T16:23:14.008Z,20.73
2023-01-13T16:25:43.804Z,16.77
2023-01-13T16:28:20.378Z,14.95
2023-01-13T16:30:46.803Z,10.77
2023-01-13T16:33:13.273Z,24.20
2023-01-13T16:35:43.881Z,21.08
2023-01-13T16:38:26.239Z,16.80
2023-01-13T16:40:53.087Z,16.45
2023-01-13T16:43:19.502Z,18.42
2023-01-13T16:45:46.006Z,15.02
2023-01-13T16:48:19.556Z,13.80
2023-01-13T16:50:46.296Z,15.43
2023-01-13T16:53:12.734Z,18.20
2023-01-13T16:55:40.853Z,22.60
2023-01-13T16:58:16.251Z,14.13
2023-01-13T17:00:43.044Z,16.42
2023-01-13T17:03:09.495Z,10.85
2023-01-13T17:05:40.391Z,16.77
2023-01-13T17:08:06.926Z,12.32
2023-01-13T17:10:33.273Z,10.32
2023-01-13T17:13:04.582Z,17.48
2023-01-13T17:15:40.047Z,8.40
2023-01-13T17:18:06.584Z,8.23
2023-01-13T17:20:33.023Z,12.70
2023-01-13T17:22:59.416Z,7.63
2023-01-13T17:25:26.279Z,12.52
2023-01-13T17:27:52.683Z,15.90
2023-01-13T17:30:19.318Z,12.77
2023-01-13T17:32:45.792Z,8.68
2023-01-13T17:35:15.725Z,15.45
2023-01-13T17:37:42.258Z,11.02
2023-01-13T17:40:09.524Z,11.60
2023-01-13T17:42:37.092Z,12.02
2023-01-13T17:45:03.684Z,11.57
2023-01-13T17:47:30.047Z,10.45
2023-01-13T17:49:56.488Z,9.40
2023-01-13T17:52:22.943Z,10.02
2023-01-13T17:54:49.406Z,15.40
2023-01-13T17:57:15.848Z,14.55
2023-01-13T17:59:42.308Z,9.40
2023-01-13T18:02:11.642Z,11.55
2023-01-13T18:04:38.332Z,13.18
2023-01-13T18:07:06.145Z,9.93
2023-01-13T18:09:35.943Z,16.75
2023-01-13T18:12:02.378Z,11.93
2023-01-13T18:14:28.779Z,12.00
2023-01-13T18:16:55.365Z,26.02
2023-01-13T18:19:40.487Z,13.82
2023-01-13T18:22:25.319Z,16.13
2023-01-13T18:25:10.208Z,12.40
2023-01-13T18:27:38.697Z,11.35
2023-01-13T18:30:06.558Z,12.85
2023-01-13T18:32:33.839Z,10.13
2023-01-13T18:35:06.376Z,15.10
2023-01-13T18:37:35.858Z,10.45
2023-01-13T18:40:03.450Z,15.73
2023-01-13T18:42:48.694Z,10.73
2023-01-13T18:45:15.337Z,16.90
2023-01-13T18:47:42.350Z,14.57
2023-01-13T18:50:12.391Z,12.43
2023-01-13T18:52:39.032Z,11.63
2023-01-13T18:55:05.832Z,11.57
2023-01-13T18:57:32.235Z,10.70
2023-01-13T18:59:58.831Z,20.95
2023-01-13T19:02:27.559Z,14.30
2023-01-13T19:04:54.365Z,12.07
2023-01-13T19:07:27.170Z,15.73
2023-01-13T19:09:59.273Z,7.72
2023-01-13T19:12:27.309Z,7.93
2023-01-13T19:14:55.772Z,10.48
2023-01-13T19:17:23.503Z,12.35
2023-01-13T19:19:53.557Z,8.90
2023-01-13T19:22:23.477Z,10.02
2023-01-13T19:24:50.609Z,7.78
2023-01-13T19:27:18.517Z,7.18
2023-01-13T19:29:52.441Z,9.05
2023-01-13T19:32:22.410Z,10.57
2023-01-13T19:34:50.682Z,10.07
2023-01-13T19:37:17.494Z,11.75
2023-01-13T19:39:44.853Z,14.18
2023-01-13T19:42:33.602Z,11.20
2023-01-13T19:45:18.759Z,12.57
2023-01-13T19:47:46.076Z,11.23
2023-01-13T19:50:14.052Z,19.83
2023-01-13T19:52:41.790Z,8.57
2023-01-13T19:55:09.622Z,17.45
2023-01-13T19:57:37.373Z,12.82
2023-01-13T20:00:06.459Z,8.13
2023-01-13T20:02:44.680Z,12.07
2023-01-13T20:05:12.689Z,9.10
2023-01-13T20:07:39.194Z,16.60
2023-01-13T20:10:06.181Z,9.85
2023-01-13T20:12:32.518Z,7.85
2023-01-13T20:14:58.893Z,15.80
2023-01-13T20:17:30.175Z,12.38
2023-01-13T20:19:58.843Z,14.10
2023-01-13T20:22:25.266Z,9.77
2023-01-13T20:24:55.011Z,10.40
2023-01-13T20:27:23.697Z,9.05
2023-01-13T20:29:50.741Z,11.43
2023-01-13T20:32:17.177Z,7.78
2023-01-13T20:34:43.520Z,8.82
2023-01-13T20:37:09.949Z,12.40
2023-01-13T20:39:36.321Z,8.88
2023-01-13T20:42:21.516Z,10.85
2023-01-13T20:44:48.053Z,12.93
2023-01-13T20:47:14.781Z,10.85
2023-01-13T20:49:41.151Z,9.70
2023-01-13T20:52:10.569Z,4.75
2023-01-13T20:54:39.140Z,6.20
2023-01-13T20:57:07.825Z,6.80
2023-01-13T20:59:34.228Z,8.88
2023-01-13T21:02:00.855Z,9.75
2023-01-13T21:04:27.827Z,22.35
2023-01-13T21:06:55.966Z,10.35
2023-01-13T21:09:23.504Z,18.67
2023-01-13T21:12:09.492Z,12.20
2023-01-13T21:14:54.365Z,11.02
2023-01-13T21:17:39.212Z,10.57
2023-01-13T21:20:07.842Z,14.57
2023-01-13T21:22:35.744Z,10.48
2023-01-13T21:25:03.404Z,10.85
2023-01-13T21:27:30.401Z,14.73
2023-01-13T21:29:57.203Z,8.85
2023-01-13T21:32:23.875Z,13.70
2023-01-13T21:34:50.241Z,17.83
2023-01-13T21:37:17.642Z,11.30
2023-01-13T21:39:44.439Z,14.15
2023-01-13T21:42:33.749Z,11.63
2023-01-13T21:45:18.718Z,7.57
2023-01-13T21:47:48.265Z,6.30
2023-01-13T21:50:21.434Z,11.18
2023-01-13T21:52:49.183Z,8.80
2023-01-13T21:55:28.277Z,10.80
2023-01-13T21:58:00.931Z,15.23
2023-01-13T22:00:30.227Z,12.43
2023-01-13T22:02:58.372Z,12.30
2023-01-13T22:05:25.285Z,18.65
2023-01-13T22:07:52.600Z,10.63
2023-01-13T22:10:21.904Z,15.50
2023-01-13T22:12:51.794Z,18.45
2023-01-13T22:15:18.520Z,18.38
2023-01-13T22:17:48.163Z,15.50
2023-01-13T22:20:15.081Z,18.55
2023-01-13T22:22:41.543Z,22.00
2023-01-13T22:25:11.462Z,15.35
2023-01-13T22:27:43.097Z,10.13
2023-01-13T22:30:18.187Z,13.45
2023-01-13T22:32:45.721Z,17.60
2023-01-13T22:35:14.708Z,18.88
2023-01-13T22:37:42.263Z,20.95
2023-01-13T22:40:11.017Z,13.32
2023-01-13T22:42:42.472Z,15.38
2023-01-13T22:45:11.810Z,18.15
2023-01-13T22:47:38.196Z,22.10
2023-01-13T22:50:06.183Z,21.25
2023-01-13T22:52:33.554Z,19.27
2023-01-13T22:55:00.744Z,16.42
2023-01-13T22:57:36.074Z,12.85
2023-01-13T23:00:10.606Z,21.20
2023-01-13T23:02:38.034Z,18.30
2023-01-13T23:05:04.820Z,15.38
2023-01-13T23:07:31.218Z,13.70
2023-01-13T23:09:57.722Z,14.43
2023-01-13T23:12:24.158Z,26.85
2023-01-13T23:14:50.509Z,21.77
2023-01-13T23:17:16.916Z,17.77
2023-01-13T23:19:43.435Z,14.85
2023-01-13T23:22:09.873Z,13.32
2023-01-13T23:24:36.332Z,15.32
2023-01-13T23:27:02.709Z,17.48
2023-01-13T23:29:29.184Z,11.43
2023-01-13T23:31:55.532Z,15.88
2023-01-13T23:34:21.925Z,18.95
2023-01-13T23:36:48.288Z,14.45
2023-01-13T23:39:14.725Z,11.63
2023-01-13T23:41:41.114Z,12.98
2023-01-13T23:44:07.900Z,16.10
2023-01-13T23:46:35.184Z,18.05
2023-01-13T23:49:03.545Z,17.95
2023-01-13T23:51:30.350Z,25.35
2023-01-13T23:53:58.129Z,12.75
2023-01-13T23:56:27.344Z,12.18
2023-01-13T23:58:54.479Z,18.35
